sensor_id;sensor_type;location;lat;lon;timestamp;pressure;altitude;pressure_sealevel;temperature;humidity
44872;BME280;30602;51.060;17.226;2023-04-28T00:01:53;102046.98;;;4.22;94.26
44872;BME280;30602;51.060;17.226;2023-04-28T00:05:40;102053.63;;;4.19;94.99
44872;BME280;30602;51.060;17.226;2023-04-28T00:10:10;102053.48;;;4.31;94.78
44872;BME280;30602;51.060;17.226;2023-04-28T00:13:41;102050.50;;;4.37;93.52
44872;BME280;30602;51.060;17.226;2023-04-28T00:17:26;102051.57;;;4.42;93.01
44872;BME280;30602;51.060;17.226;2023-04-28T00:21:29;102047.51;;;4.41;93.62
44872;BME280;30602;51.060;17.226;2023-04-28T00:25:10;102033.89;;;4.33;94.00
44872;BME280;30602;51.060;17.226;2023-04-28T00:28:39;102040.99;;;4.34;94.51
44872;BME280;30602;51.060;17.226;2023-04-28T00:32:34;102040.61;;;4.24;94.65
44872;BME280;30602;51.060;17.226;2023-04-28T00:36:11;102035.49;;;4.26;94.97
44872;BME280;30602;51.060;17.226;2023-04-28T00:39:41;102012.38;;;4.20;95.17
44872;BME280;30602;51.060;17.226;2023-04-28T00:43:22;102031.23;;;4.25;94.79
44872;BME280;30602;51.060;17.226;2023-04-28T00:46:47;102032.74;;;4.26;94.55
44872;BME280;30602;51.060;17.226;2023-04-28T00:50:36;102027.02;;;4.27;95.25
44872;BME280;30602;51.060;17.226;2023-04-28T00:54:39;102018.02;;;4.17;95.02
44872;BME280;30602;51.060;17.226;2023-04-28T00:58:44;102025.48;;;4.28;94.63
44872;BME280;30602;51.060;17.226;2023-04-28T01:02:36;102023.59;;;4.40;94.68
44872;BME280;30602;51.060;17.226;2023-04-28T01:06:16;102022.72;;;4.45;94.92
44872;BME280;30602;51.060;17.226;2023-04-28T01:10:06;102002.15;;;4.36;94.25
44872;BME280;30602;51.060;17.226;2023-04-28T01:13:31;102013.97;;;4.41;93.61
44872;BME280;30602;51.060;17.226;2023-04-28T01:16:54;102015.58;;;4.33;93.19
44872;BME280;30602;51.060;17.226;2023-04-28T01:20:55;102001.39;;;4.21;94.17
44872;BME280;30602;51.060;17.226;2023-04-28T01:24:39;102000.37;;;4.17;93.83
44872;BME280;30602;51.060;17.226;2023-04-28T01:28:27;102010.84;;;4.18;93.41
44872;BME280;30602;51.060;17.226;2023-04-28T01:32:22;102003.02;;;4.12;93.55
44872;BME280;30602;51.060;17.226;2023-04-28T01:36:16;102004.89;;;4.13;94.02
44872;BME280;30602;51.060;17.226;2023-04-28T01:39:35;102002.19;;;4.12;94.37
44872;BME280;30602;51.060;17.226;2023-04-28T01:43:30;101995.36;;;4.19;93.73
44872;BME280;30602;51.060;17.226;2023-04-28T01:47:03;101992.39;;;4.27;93.78
44872;BME280;30602;51.060;17.226;2023-04-28T01:50:45;101990.04;;;4.29;93.72
44872;BME280;30602;51.060;17.226;2023-04-28T01:54:47;101981.12;;;4.22;93.81
44872;BME280;30602;51.060;17.226;2023-04-28T01:58:06;101985.57;;;4.33;92.96
44872;BME280;30602;51.060;17.226;2023-04-28T02:05:25;101989.13;;;4.31;93.31
44872;BME280;30602;51.060;17.226;2023-04-28T02:08:49;101994.09;;;4.33;93.58
44872;BME280;30602;51.060;17.226;2023-04-28T02:16:45;101973.92;;;4.16;93.81
44872;BME280;30602;51.060;17.226;2023-04-28T02:20:08;101995.38;;;4.23;93.11
44872;BME280;30602;51.060;17.226;2023-04-28T02:23:36;101996.21;;;4.33;92.16
44872;BME280;30602;51.060;17.226;2023-04-28T02:27:09;101991.14;;;4.39;91.95
44872;BME280;30602;51.060;17.226;2023-04-28T02:30:33;101986.37;;;4.41;91.41
44872;BME280;30602;51.060;17.226;2023-04-28T02:34:40;101981.29;;;4.40;91.62
44872;BME280;30602;51.060;17.226;2023-04-28T02:38:49;101978.38;;;4.48;90.58
44872;BME280;30602;51.060;17.226;2023-04-28T02:42:51;101973.70;;;4.48;91.15
44872;BME280;30602;51.060;17.226;2023-04-28T02:46:17;101974.12;;;4.52;90.31
44872;BME280;30602;51.060;17.226;2023-04-28T02:49:39;101973.36;;;4.55;88.40
44872;BME280;30602;51.060;17.226;2023-04-28T02:53:29;101967.74;;;4.59;88.67
44872;BME280;30602;51.060;17.226;2023-04-28T02:56:57;101943.80;;;4.46;89.51
44872;BME280;30602;51.060;17.226;2023-04-28T03:00:44;101962.61;;;4.56;89.79
44872;BME280;30602;51.060;17.226;2023-04-28T03:08:08;101959.94;;;4.54;90.44
44872;BME280;30602;51.060;17.226;2023-04-28T03:11:56;101956.48;;;4.53;90.06
44872;BME280;30602;51.060;17.226;2023-04-28T03:15:50;101962.57;;;4.51;89.80
44872;BME280;30602;51.060;17.226;2023-04-28T03:19:44;101963.55;;;4.43;90.53
44872;BME280;30602;51.060;17.226;2023-04-28T03:23:26;101963.04;;;4.38;91.40
44872;BME280;30602;51.060;17.226;2023-04-28T03:27:00;101966.13;;;4.23;92.02
44872;BME280;30602;51.060;17.226;2023-04-28T03:30:33;101967.30;;;4.16;91.78
44872;BME280;30602;51.060;17.226;2023-04-28T03:34:43;101964.73;;;4.10;92.15
44872;BME280;30602;51.060;17.226;2023-04-28T03:38:13;101964.59;;;4.00;92.28
44872;BME280;30602;51.060;17.226;2023-04-28T03:41:48;101976.94;;;3.95;92.46
44872;BME280;30602;51.060;17.226;2023-04-28T03:45:33;101978.02;;;3.90;92.65
44872;BME280;30602;51.060;17.226;2023-04-28T03:49:00;101974.66;;;3.91;92.35
44872;BME280;30602;51.060;17.226;2023-04-28T03:52:51;101975.32;;;3.98;92.03
44872;BME280;30602;51.060;17.226;2023-04-28T03:56:31;101972.38;;;4.06;91.80
44872;BME280;30602;51.060;17.226;2023-04-28T03:59:52;101974.23;;;4.05;91.87
44872;BME280;30602;51.060;17.226;2023-04-28T04:03:13;101965.93;;;4.16;92.22
44872;BME280;30602;51.060;17.226;2023-04-28T04:07:21;101953.46;;;4.20;90.52
44872;BME280;30602;51.060;17.226;2023-04-28T04:10:52;101964.63;;;4.44;90.84
44872;BME280;30602;51.060;17.226;2023-04-28T04:15:09;101952.84;;;4.44;90.36
44872;BME280;30602;51.060;17.226;2023-04-28T04:18:59;101954.84;;;4.69;89.75
44872;BME280;30602;51.060;17.226;2023-04-28T04:22:26;101956.95;;;4.73;89.77
44872;BME280;30602;51.060;17.226;2023-04-28T04:26:22;101960.51;;;4.93;86.41
44872;BME280;30602;51.060;17.226;2023-04-28T04:29:47;101957.46;;;5.07;85.79
44872;BME280;30602;51.060;17.226;2023-04-28T04:33:45;101958.30;;;5.17;84.31
44872;BME280;30602;51.060;17.226;2023-04-28T04:38:00;101952.63;;;5.33;84.69
44872;BME280;30602;51.060;17.226;2023-04-28T04:41:59;101956.66;;;5.36;83.16
44872;BME280;30602;51.060;17.226;2023-04-28T04:45:20;101956.74;;;5.41;82.64
44872;BME280;30602;51.060;17.226;2023-04-28T04:48:44;101953.61;;;5.45;82.63
44872;BME280;30602;51.060;17.226;2023-04-28T04:56:45;101952.52;;;5.38;81.74
44872;BME280;30602;51.060;17.226;2023-04-28T05:00:39;101940.72;;;5.38;81.20
44872;BME280;30602;51.060;17.226;2023-04-28T05:04:31;101952.53;;;5.40;81.40
44872;BME280;30602;51.060;17.226;2023-04-28T05:08:18;101951.03;;;5.48;81.87
44872;BME280;30602;51.060;17.226;2023-04-28T05:11:35;101950.28;;;5.56;80.91
44872;BME280;30602;51.060;17.226;2023-04-28T05:15:03;101947.90;;;5.59;81.47
44872;BME280;30602;51.060;17.226;2023-04-28T05:22:24;101948.15;;;5.72;81.00
44872;BME280;30602;51.060;17.226;2023-04-28T05:26:12;101951.80;;;5.77;79.75
44872;BME280;30602;51.060;17.226;2023-04-28T05:29:55;101950.09;;;5.81;80.65
44872;BME280;30602;51.060;17.226;2023-04-28T05:33:21;101941.68;;;5.92;79.45
44872;BME280;30602;51.060;17.226;2023-04-28T05:37:03;101935.81;;;5.99;80.62
44872;BME280;30602;51.060;17.226;2023-04-28T05:40:27;101940.11;;;6.13;80.32
44872;BME280;30602;51.060;17.226;2023-04-28T05:44:12;101937.25;;;6.21;79.44
44872;BME280;30602;51.060;17.226;2023-04-28T05:47:57;101937.51;;;6.31;78.95
44872;BME280;30602;51.060;17.226;2023-04-28T05:51:43;101927.06;;;6.35;79.42
44872;BME280;30602;51.060;17.226;2023-04-28T05:55:05;101928.93;;;6.57;76.93
44872;BME280;30602;51.060;17.226;2023-04-28T05:58:28;101928.10;;;6.64;76.73
44872;BME280;30602;51.060;17.226;2023-04-28T06:10:09;101922.86;;;6.65;74.33
44872;BME280;30602;51.060;17.226;2023-04-28T06:14:15;101918.23;;;6.63;75.17
44872;BME280;30602;51.060;17.226;2023-04-28T06:18:03;101911.96;;;6.76;75.19
44872;BME280;30602;51.060;17.226;2023-04-28T06:22:07;101917.38;;;6.93;74.34
44872;BME280;30602;51.060;17.226;2023-04-28T06:25:36;101909.02;;;7.41;74.23
44872;BME280;30602;51.060;17.226;2023-04-28T06:28:58;101904.84;;;7.65;73.23
44872;BME280;30602;51.060;17.226;2023-04-28T06:32:27;101905.44;;;7.79;71.38
44872;BME280;30602;51.060;17.226;2023-04-28T06:35:51;101907.55;;;7.76;70.89
44872;BME280;30602;51.060;17.226;2023-04-28T06:39:49;101903.48;;;7.77;71.18
44872;BME280;30602;51.060;17.226;2023-04-28T06:43:49;101899.12;;;7.89;70.68
44872;BME280;30602;51.060;17.226;2023-04-28T06:47:17;101899.35;;;8.12;70.33
44872;BME280;30602;51.060;17.226;2023-04-28T06:51:21;101893.70;;;8.14;71.54
44872;BME280;30602;51.060;17.226;2023-04-28T06:54:50;101897.77;;;8.25;70.56
44872;BME280;30602;51.060;17.226;2023-04-28T06:58:35;101894.80;;;8.47;67.92
44872;BME280;30602;51.060;17.226;2023-04-28T07:01:56;101893.45;;;8.55;68.19
44872;BME280;30602;51.060;17.226;2023-04-28T07:05:59;101891.10;;;8.72;67.78
44872;BME280;30602;51.060;17.226;2023-04-28T07:10:03;101881.84;;;8.91;65.65
44872;BME280;30602;51.060;17.226;2023-04-28T07:13:50;101873.20;;;9.09;67.04
44872;BME280;30602;51.060;17.226;2023-04-28T07:17:26;101868.73;;;9.31;66.55
44872;BME280;30602;51.060;17.226;2023-04-28T07:21:11;101868.99;;;9.59;67.58
44872;BME280;30602;51.060;17.226;2023-04-28T07:24:39;101871.96;;;9.72;65.06
44872;BME280;30602;51.060;17.226;2023-04-28T07:28:12;101853.48;;;9.97;65.86
44872;BME280;30602;51.060;17.226;2023-04-28T07:32:21;101849.85;;;10.17;63.33
44872;BME280;30602;51.060;17.226;2023-04-28T07:35:50;101845.47;;;10.43;65.13
44872;BME280;30602;51.060;17.226;2023-04-28T07:39:34;101838.76;;;10.39;61.93
44872;BME280;30602;51.060;17.226;2023-04-28T07:43:39;101834.74;;;10.80;61.30
44872;BME280;30602;51.060;17.226;2023-04-28T07:47:35;101833.30;;;10.81;60.01
44872;BME280;30602;51.060;17.226;2023-04-28T07:51:03;101829.70;;;11.16;59.78
44872;BME280;30602;51.060;17.226;2023-04-28T07:54:43;101828.30;;;11.27;59.58
44872;BME280;30602;51.060;17.226;2023-04-28T07:58:46;101823.59;;;11.60;59.71
44872;BME280;30602;51.060;17.226;2023-04-28T08:02:37;101809.71;;;11.82;54.68
44872;BME280;30602;51.060;17.226;2023-04-28T08:10:52;101815.41;;;12.01;51.15
44872;BME280;30602;51.060;17.226;2023-04-28T08:14:37;101810.14;;;12.35;54.33
44872;BME280;30602;51.060;17.226;2023-04-28T08:18:02;101811.62;;;12.34;52.71
44872;BME280;30602;51.060;17.226;2023-04-28T08:21:44;101806.23;;;12.43;53.15
44872;BME280;30602;51.060;17.226;2023-04-28T08:25:40;101803.23;;;12.49;53.17
44872;BME280;30602;51.060;17.226;2023-04-28T08:29:02;101795.60;;;12.61;51.60
44872;BME280;30602;51.060;17.226;2023-04-28T08:32:49;101795.99;;;12.77;49.87
44872;BME280;30602;51.060;17.226;2023-04-28T08:36:44;101796.24;;;12.63;48.96
44872;BME280;30602;51.060;17.226;2023-04-28T08:40:07;101790.59;;;12.66;50.06
44872;BME280;30602;51.060;17.226;2023-04-28T08:43:51;101781.85;;;13.08;51.15
44872;BME280;30602;51.060;17.226;2023-04-28T08:47:18;101782.48;;;13.22;48.88
44872;BME280;30602;51.060;17.226;2023-04-28T08:50:51;101777.45;;;13.44;46.18
44872;BME280;30602;51.060;17.226;2023-04-28T08:55:10;101771.99;;;13.38;44.47
44872;BME280;30602;51.060;17.226;2023-04-28T08:59:03;101767.53;;;13.43;49.63
44872;BME280;30602;51.060;17.226;2023-04-28T09:02:48;101766.37;;;13.51;45.82
44872;BME280;30602;51.060;17.226;2023-04-28T09:07:11;101758.59;;;13.51;47.86
44872;BME280;30602;51.060;17.226;2023-04-28T09:14:35;101742.35;;;13.79;44.67
44872;BME280;30602;51.060;17.226;2023-04-28T09:18:21;101741.30;;;13.92;47.19
44872;BME280;30602;51.060;17.226;2023-04-28T09:22:03;101723.02;;;14.18;46.12
44872;BME280;30602;51.060;17.226;2023-04-28T09:26:06;101725.10;;;14.52;48.06
44872;BME280;30602;51.060;17.226;2023-04-28T09:29:31;101724.77;;;14.41;44.56
44872;BME280;30602;51.060;17.226;2023-04-28T09:33:03;101721.13;;;14.59;44.74
44872;BME280;30602;51.060;17.226;2023-04-28T09:36:32;101720.34;;;14.64;45.10
44872;BME280;30602;51.060;17.226;2023-04-28T09:40:16;101710.68;;;14.74;43.90
44872;BME280;30602;51.060;17.226;2023-04-28T09:44:25;101702.73;;;14.89;46.94
44872;BME280;30602;51.060;17.226;2023-04-28T09:48:27;101691.58;;;14.95;45.35
44872;BME280;30602;51.060;17.226;2023-04-28T09:52:22;101691.41;;;15.01;46.42
44872;BME280;30602;51.060;17.226;2023-04-28T09:55:47;101683.24;;;15.12;47.58
44872;BME280;30602;51.060;17.226;2023-04-28T09:59:33;101683.20;;;15.34;46.30
44872;BME280;30602;51.060;17.226;2023-04-28T10:03:24;101680.74;;;15.14;45.07
44872;BME280;30602;51.060;17.226;2023-04-28T10:07:19;101655.20;;;15.00;45.93
44872;BME280;30602;51.060;17.226;2023-04-28T10:11:01;101673.43;;;15.17;46.85
44872;BME280;30602;51.060;17.226;2023-04-28T10:14:48;101665.18;;;15.39;46.46
44872;BME280;30602;51.060;17.226;2023-04-28T10:18:23;101659.48;;;15.48;46.85
44872;BME280;30602;51.060;17.226;2023-04-28T10:21:54;101650.92;;;15.48;47.29
44872;BME280;30602;51.060;17.226;2023-04-28T10:25:48;101646.94;;;15.70;47.63
44872;BME280;30602;51.060;17.226;2023-04-28T10:29:16;101636.58;;;15.53;47.36
44872;BME280;30602;51.060;17.226;2023-04-28T10:33:24;101628.00;;;15.89;48.54
44872;BME280;30602;51.060;17.226;2023-04-28T10:37:18;101627.49;;;15.90;46.16
44872;BME280;30602;51.060;17.226;2023-04-28T10:45:05;101613.06;;;16.17;47.26
44872;BME280;30602;51.060;17.226;2023-04-28T10:56:26;101603.16;;;16.26;44.47
44872;BME280;30602;51.060;17.226;2023-04-28T10:59:48;101598.25;;;16.33;45.99
44872;BME280;30602;51.060;17.226;2023-04-28T11:03:52;101596.13;;;16.45;45.54
44872;BME280;30602;51.060;17.226;2023-04-28T11:15:39;101593.13;;;16.54;44.89
44872;BME280;30602;51.060;17.226;2023-04-28T11:19:23;101588.59;;;16.74;45.70
44872;BME280;30602;51.060;17.226;2023-04-28T11:27:45;101581.92;;;16.49;38.60
44872;BME280;30602;51.060;17.226;2023-04-28T11:31:11;101578.42;;;16.41;39.76
44872;BME280;30602;51.060;17.226;2023-04-28T11:35:09;101574.10;;;16.80;43.24
44872;BME280;30602;51.060;17.226;2023-04-28T11:46:27;101556.86;;;17.00;41.03
44872;BME280;30602;51.060;17.226;2023-04-28T11:50:09;101547.55;;;17.08;41.96
44872;BME280;30602;51.060;17.226;2023-04-28T11:53:43;101536.13;;;17.20;41.16
44872;BME280;30602;51.060;17.226;2023-04-28T11:57:23;101537.02;;;16.91;39.34
44872;BME280;30602;51.060;17.226;2023-04-28T12:01:09;101531.81;;;17.02;42.68
44872;BME280;30602;51.060;17.226;2023-04-28T12:04:55;101532.27;;;17.02;40.68
44872;BME280;30602;51.060;17.226;2023-04-28T12:08:30;101530.95;;;17.12;42.85
44872;BME280;30602;51.060;17.226;2023-04-28T12:12:14;101524.59;;;17.52;44.77
44872;BME280;30602;51.060;17.226;2023-04-28T12:16:03;101522.45;;;17.33;41.57
44872;BME280;30602;51.060;17.226;2023-04-28T12:24:12;101513.70;;;17.94;42.99
44872;BME280;30602;51.060;17.226;2023-04-28T12:27:37;101507.43;;;18.18;42.75
44872;BME280;30602;51.060;17.226;2023-04-28T12:31:59;101500.56;;;18.03;41.17
44872;BME280;30602;51.060;17.226;2023-04-28T12:35:23;101508.02;;;17.65;38.09
44872;BME280;30602;51.060;17.226;2023-04-28T12:43:36;101496.46;;;17.81;40.50
44872;BME280;30602;51.060;17.226;2023-04-28T12:47:21;101501.43;;;17.64;38.35
44872;BME280;30602;51.060;17.226;2023-04-28T12:51:09;101490.88;;;17.36;39.40
44872;BME280;30602;51.060;17.226;2023-04-28T12:54:32;101489.39;;;17.44;38.62
44872;BME280;30602;51.060;17.226;2023-04-28T12:58:47;101484.26;;;17.53;40.83
44872;BME280;30602;51.060;17.226;2023-04-28T13:02:33;101475.54;;;17.82;41.30
44872;BME280;30602;51.060;17.226;2023-04-28T13:06:48;101468.39;;;17.85;38.19
44872;BME280;30602;51.060;17.226;2023-04-28T13:10:53;101464.91;;;18.13;40.08
44872;BME280;30602;51.060;17.226;2023-04-28T13:14:20;101456.23;;;18.22;40.68
44872;BME280;30602;51.060;17.226;2023-04-28T13:18:37;101463.63;;;18.17;38.59
44872;BME280;30602;51.060;17.226;2023-04-28T13:22:19;101459.35;;;18.29;37.87
44872;BME280;30602;51.060;17.226;2023-04-28T13:26:01;101453.07;;;18.07;36.40
44872;BME280;30602;51.060;17.226;2023-04-28T13:29:45;101454.70;;;17.87;36.39
44872;BME280;30602;51.060;17.226;2023-04-28T13:33:07;101445.80;;;18.11;40.65
44872;BME280;30602;51.060;17.226;2023-04-28T13:36:45;101442.09;;;18.07;38.72
44872;BME280;30602;51.060;17.226;2023-04-28T13:40:44;101442.72;;;18.13;38.38
44872;BME280;30602;51.060;17.226;2023-04-28T13:44:15;101441.74;;;17.98;36.50
44872;BME280;30602;51.060;17.226;2023-04-28T13:47:59;101437.89;;;18.12;39.03
44872;BME280;30602;51.060;17.226;2023-04-28T13:51:52;101435.79;;;17.83;35.39
44872;BME280;30602;51.060;17.226;2023-04-28T13:55:49;101423.28;;;17.64;35.43
44872;BME280;30602;51.060;17.226;2023-04-28T13:59:20;101413.00;;;17.99;37.88
44872;BME280;30602;51.060;17.226;2023-04-28T14:03:02;101404.65;;;18.04;37.47
44872;BME280;30602;51.060;17.226;2023-04-28T14:45:55;101380.63;;;17.48;37.18
44872;BME280;30602;51.060;17.226;2023-04-28T14:49:27;101381.54;;;17.18;37.01
44872;BME280;30602;51.060;17.226;2023-04-28T14:52:52;101378.25;;;17.24;37.04
44872;BME280;30602;51.060;17.226;2023-04-28T14:56:30;101372.15;;;17.36;37.65
44872;BME280;30602;51.060;17.226;2023-04-28T14:59:53;101362.91;;;17.41;37.45
44872;BME280;30602;51.060;17.226;2023-04-28T15:03:20;101360.99;;;17.41;38.14
44872;BME280;30602;51.060;17.226;2023-04-28T15:06:44;101352.40;;;17.43;37.88
44872;BME280;30602;51.060;17.226;2023-04-28T15:10:06;101352.02;;;17.52;38.56
44872;BME280;30602;51.060;17.226;2023-04-28T15:14:20;101348.34;;;17.48;39.45
44872;BME280;30602;51.060;17.226;2023-04-28T15:17:40;101341.73;;;17.26;37.87
44872;BME280;30602;51.060;17.226;2023-04-28T15:21:37;101337.34;;;17.06;39.42
44872;BME280;30602;51.060;17.226;2023-04-28T15:25:30;101337.61;;;17.13;37.01
44872;BME280;30602;51.060;17.226;2023-04-28T15:29:04;101331.12;;;17.06;38.46
44872;BME280;30602;51.060;17.226;2023-04-28T15:32:29;101328.69;;;16.89;39.34
44872;BME280;30602;51.060;17.226;2023-04-28T15:36:09;101328.02;;;16.90;39.40
44872;BME280;30602;51.060;17.226;2023-04-28T15:39:51;101330.03;;;16.79;39.59
44872;BME280;30602;51.060;17.226;2023-04-28T15:43:45;101326.24;;;16.73;36.74
44872;BME280;30602;51.060;17.226;2023-04-28T15:47:41;101327.07;;;16.61;38.77
44872;BME280;30602;51.060;17.226;2023-04-28T15:51:26;101323.62;;;16.63;39.94
44872;BME280;30602;51.060;17.226;2023-04-28T15:55:06;101322.36;;;16.58;38.97
44872;BME280;30602;51.060;17.226;2023-04-28T15:58:27;101321.50;;;16.45;39.46
44872;BME280;30602;51.060;17.226;2023-04-28T16:02:23;101318.60;;;16.50;38.31
44872;BME280;30602;51.060;17.226;2023-04-28T16:05:42;101317.63;;;16.57;40.38
44872;BME280;30602;51.060;17.226;2023-04-28T16:09:28;101314.77;;;16.47;39.87
44872;BME280;30602;51.060;17.226;2023-04-28T16:13:10;101315.91;;;16.44;38.69
44872;BME280;30602;51.060;17.226;2023-04-28T16:17:39;101317.14;;;16.34;38.69
44872;BME280;30602;51.060;17.226;2023-04-28T16:21:22;101312.92;;;16.27;39.14
44872;BME280;30602;51.060;17.226;2023-04-28T16:25:17;101309.55;;;16.18;39.10
44872;BME280;30602;51.060;17.226;2023-04-28T16:29:01;101309.69;;;16.10;39.36
44872;BME280;30602;51.060;17.226;2023-04-28T16:32:38;101287.70;;;15.86;40.43
44872;BME280;30602;51.060;17.226;2023-04-28T16:36:01;101297.83;;;16.10;40.82
44872;BME280;30602;51.060;17.226;2023-04-28T16:39:55;101298.09;;;16.13;40.25
44872;BME280;30602;51.060;17.226;2023-04-28T16:43:18;101292.80;;;16.12;39.85
44872;BME280;30602;51.060;17.226;2023-04-28T16:47:25;101286.98;;;16.02;40.23
44872;BME280;30602;51.060;17.226;2023-04-28T16:50:47;101284.17;;;15.98;41.15
44872;BME280;30602;51.060;17.226;2023-04-28T16:54:31;101287.16;;;15.89;40.72
44872;BME280;30602;51.060;17.226;2023-04-28T16:58:20;101285.38;;;15.79;42.18
44872;BME280;30602;51.060;17.226;2023-04-28T17:02:03;101281.88;;;15.74;41.20
44872;BME280;30602;51.060;17.226;2023-04-28T17:09:21;101283.63;;;15.58;43.03
44872;BME280;30602;51.060;17.226;2023-04-28T17:13:04;101282.38;;;15.55;45.06
44872;BME280;30602;51.060;17.226;2023-04-28T17:17:11;101283.16;;;15.50;46.11
44872;BME280;30602;51.060;17.226;2023-04-28T17:20:55;101280.71;;;15.36;45.77
44872;BME280;30602;51.060;17.226;2023-04-28T17:24:38;101282.34;;;15.25;46.80
44872;BME280;30602;51.060;17.226;2023-04-28T17:28:20;101279.48;;;15.12;48.41
44872;BME280;30602;51.060;17.226;2023-04-28T17:32:05;101259.65;;;14.92;48.88
44872;BME280;30602;51.060;17.226;2023-04-28T17:36:03;101278.59;;;14.96;49.85
44872;BME280;30602;51.060;17.226;2023-04-28T17:39:22;101283.23;;;14.91;50.61
44872;BME280;30602;51.060;17.226;2023-04-28T17:43:06;101284.50;;;14.78;51.15
44872;BME280;30602;51.060;17.226;2023-04-28T17:46:46;101282.95;;;14.79;52.01
44872;BME280;30602;51.060;17.226;2023-04-28T17:50:58;101284.47;;;14.74;52.46
44872;BME280;30602;51.060;17.226;2023-04-28T17:54:59;101282.64;;;14.58;54.08
44872;BME280;30602;51.060;17.226;2023-04-28T17:58:41;101285.24;;;14.37;54.32
44872;BME280;30602;51.060;17.226;2023-04-28T18:02:23;101281.10;;;14.11;54.88
44872;BME280;30602;51.060;17.226;2023-04-28T18:05:46;101278.55;;;13.97;54.86
44872;BME280;30602;51.060;17.226;2023-04-28T18:09:50;101282.91;;;13.93;56.22
44872;BME280;30602;51.060;17.226;2023-04-28T18:13:35;101282.80;;;13.76;55.85
44872;BME280;30602;51.060;17.226;2023-04-28T18:16:58;101284.64;;;13.65;56.44
44872;BME280;30602;51.060;17.226;2023-04-28T18:21:10;101285.59;;;13.45;58.08
44872;BME280;30602;51.060;17.226;2023-04-28T18:25:00;101284.04;;;13.46;59.20
44872;BME280;30602;51.060;17.226;2023-04-28T18:28:50;101285.34;;;13.29;60.04
44872;BME280;30602;51.060;17.226;2023-04-28T18:32:47;101289.80;;;13.03;60.86
44872;BME280;30602;51.060;17.226;2023-04-28T18:36:07;101295.69;;;12.80;62.06
44872;BME280;30602;51.060;17.226;2023-04-28T18:39:31;101301.09;;;12.60;62.95
44872;BME280;30602;51.060;17.226;2023-04-28T18:43:31;101300.09;;;12.39;63.87
44872;BME280;30602;51.060;17.226;2023-04-28T18:47:16;101302.80;;;12.31;64.03
44872;BME280;30602;51.060;17.226;2023-04-28T18:50:40;101304.13;;;12.12;64.78
44872;BME280;30602;51.060;17.226;2023-04-28T18:54:20;101307.45;;;12.08;65.06
44872;BME280;30602;51.060;17.226;2023-04-28T18:57:43;101309.22;;;12.02;64.98
44872;BME280;30602;51.060;17.226;2023-04-28T19:01:42;101306.94;;;11.93;65.73
44872;BME280;30602;51.060;17.226;2023-04-28T19:05:19;101305.47;;;12.00;65.77
44872;BME280;30602;51.060;17.226;2023-04-28T19:08:40;101307.43;;;11.82;66.45
44872;BME280;30602;51.060;17.226;2023-04-28T19:12:21;101307.79;;;11.67;66.80
44872;BME280;30602;51.060;17.226;2023-04-28T19:16:15;101301.46;;;11.60;67.28
44872;BME280;30602;51.060;17.226;2023-04-28T19:19:41;101283.83;;;11.50;66.41
44872;BME280;30602;51.060;17.226;2023-04-28T19:23:00;101297.16;;;11.47;67.72
44872;BME280;30602;51.060;17.226;2023-04-28T19:27:13;101281.08;;;11.44;66.32
44872;BME280;30602;51.060;17.226;2023-04-28T19:31:07;101292.37;;;11.67;65.85
44872;BME280;30602;51.060;17.226;2023-04-28T19:35:09;101277.80;;;11.66;65.74
44872;BME280;30602;51.060;17.226;2023-04-28T19:38:29;101287.40;;;11.92;64.22
44872;BME280;30602;51.060;17.226;2023-04-28T19:41:54;101282.02;;;12.04;63.52
44872;BME280;30602;51.060;17.226;2023-04-28T19:45:14;101286.86;;;12.03;63.90
44872;BME280;30602;51.060;17.226;2023-04-28T19:48:41;101290.20;;;12.00;63.94
44872;BME280;30602;51.060;17.226;2023-04-28T19:52:34;101293.03;;;11.95;63.68
44872;BME280;30602;51.060;17.226;2023-04-28T19:56:00;101291.31;;;11.89;64.89
44872;BME280;30602;51.060;17.226;2023-04-28T19:59:47;101292.26;;;11.91;64.47
44872;BME280;30602;51.060;17.226;2023-04-28T20:03:12;101292.02;;;12.00;61.55
44872;BME280;30602;51.060;17.226;2023-04-28T20:07:09;101286.38;;;11.86;63.11
44872;BME280;30602;51.060;17.226;2023-04-28T20:11:07;101292.55;;;11.74;64.14
44872;BME280;30602;51.060;17.226;2023-04-28T20:14:46;101289.68;;;11.70;64.95
44872;BME280;30602;51.060;17.226;2023-04-28T20:18:10;101292.59;;;11.72;65.42
44872;BME280;30602;51.060;17.226;2023-04-28T20:25:44;101295.04;;;11.66;65.53
44872;BME280;30602;51.060;17.226;2023-04-28T20:29:31;101297.48;;;11.57;66.82
44872;BME280;30602;51.060;17.226;2023-04-28T20:32:54;101292.05;;;11.37;68.20
44872;BME280;30602;51.060;17.226;2023-04-28T20:37:07;101293.67;;;11.33;68.78
44872;BME280;30602;51.060;17.226;2023-04-28T20:41:11;101293.41;;;11.26;69.26
44872;BME280;30602;51.060;17.226;2023-04-28T20:44:57;101292.33;;;11.22;69.54
44872;BME280;30602;51.060;17.226;2023-04-28T20:48:43;101293.02;;;11.15;69.19
44872;BME280;30602;51.060;17.226;2023-04-28T20:52:43;101290.43;;;11.00;70.94
44872;BME280;30602;51.060;17.226;2023-04-28T20:56:06;101283.66;;;11.01;71.07
44872;BME280;30602;51.060;17.226;2023-04-28T21:00:03;101280.99;;;11.06;70.92
44872;BME280;30602;51.060;17.226;2023-04-28T21:03:27;101283.66;;;11.08;70.76
44872;BME280;30602;51.060;17.226;2023-04-28T21:07:02;101281.00;;;10.97;71.38
44872;BME280;30602;51.060;17.226;2023-04-28T21:10:54;101278.06;;;10.92;72.30
44872;BME280;30602;51.060;17.226;2023-04-28T21:15:04;101271.37;;;10.76;72.49
44872;BME280;30602;51.060;17.226;2023-04-28T21:18:46;101265.09;;;10.73;73.48